Latest Coastal Weather Observations for Hobart

IDT60701

Issued at 2:52 am EST Sunday 28 August 2016 (issued every 10 minutes, with the page automatically refreshed every 10 minutes)

About coastal observations | Map of coastal stations | Coastal observations for TAS | Marine services | Other Formats
Station Details ID: 094029 Name: HOBART (ELLERSLIE ROAD) Lat: -42.89 Lon: 147.33 Height: 50.5 m
Data from the previous 72 hours. | See also: Recent months at Hobart
Date/Time
EST
Temp
°C
Wind Pressure Rain since
9am
mm
Weather Cloud Vis
km
Sea
Height
m
Swell
Dir  Spd
kts
Gust
kts
hPa Trend Height
m
Period
s
Dir
28/02:30am 7.3 SSW 11 16 1009.3 - 1.6 - - - - - - -
28/02:00am 7.9 S 12 19 1008.6 - 1.4 - - - - - - -
28/01:30am 8.6 SSW 12 18 1007.8 - 1.4 - - - - - - -
28/01:00am 9.2 WSW 6 12 1007.0 - 1.4 - - - - - - -
28/12:30am 9.5 NW 14 22 1005.7 - 1.4 - - - - - - -
28/12:00am 9.7 WNW 14 20 1005.1 - 1.0 Recent precip. - - - - - -
 
Date/Time
EST
Temp
°C
Wind Pressure Rain since
9am
mm
Weather Cloud Vis
km
Sea
Height
m
Swell
Dir  Spd
kts
Gust
kts
hPa Trend Height
m
Period
s
Dir
27/11:30pm 10.4 NW 22 32 1004.2 - 0.6 - - - - - - -
27/11:00pm 10.7 NW 18 31 1003.4 - 0.4 - - - - - - -
27/10:30pm 12.0 NW 17 31 1003.7 - 0.2 - - - - - - -
27/10:28pm 11.9 NNW 15 29 1003.8 - 0.2 - - - - - - -
27/10:00pm 11.3 NNW 17 25 1004.2 - 0.2 - - - - - - -
27/09:30pm 11.5 NW 15 30 1004.3 - 0.2 - - - - - - -
27/09:06pm 11.6 NW 15 27 1004.8 - 0.2 - - - - - - -
27/09:00pm 11.5 NW 13 25 1004.8 - 0.2 - - - - - - -
27/08:31pm 11.2 NW 15 28 1004.7 - 0.2 - - - - - - -
27/08:30pm 11.1 NW 14 28 1004.8 - 0.2 - - - - - - -
27/08:04pm 11.0 NW 15 33 1005.7 - 0.2 - - - - - - -
27/08:00pm 11.0 NW 13 23 1005.8 - 0.2 - - - - - - -
27/07:30pm 11.1 NNW 13 18 1006.7 - 0.2 - - - - - - -
27/07:00pm 10.9 NW 14 21 1006.9 - 0.2 - - - - - - -
27/06:30pm 10.9 NNW 15 25 1007.1 - 0.2 - - - - - - -
27/06:29pm 10.9 NNW 15 25 1007.1 - 0.2 - - - - - - -
27/06:00pm 11.3 NW 11 21 1007.5 - 0.0 - - - - - - -
27/05:30pm 11.4 NW 16 22 1007.4 - 0.0 - - - - - - -
27/05:14pm 11.5 NW 15 27 1007.2 - 0.0 - - - - - - -
27/05:00pm 11.8 NW 15 22 1007.2 - 0.0 - - - - - - -
27/04:30pm 12.9 NW 12 18 1007.2 - 0.0 - - - - - - -
27/04:00pm 13.0 NW 16 26 1007.3 - 0.0 - - - - - - -
27/03:30pm 14.5 NW 17 26 1007.0 - 0.0 - - - - - - -
27/03:25pm 14.4 NW 16 26 1007.0 - 0.0 - - - - - - -
27/03:00pm 13.8 NW 17 25 1007.0 - 0.0 - - - - - - -
27/02:33pm 14.2 NW 18 29 1007.2 - 0.0 - - - - - - -
27/02:30pm 14.2 NW 17 26 1007.2 - 0.0 - - - - - - -
27/02:00pm 14.5 NW 15 26 1007.2 - 0.0 - - - - - - -
27/01:30pm 14.4 NW 19 29 1007.5 - 0.0 - - - - - - -
27/01:09pm 14.2 NNW 17 30 1007.9 - 0.0 - - - - - - -
27/01:00pm 14.0 NW 15 24 1007.9 - 0.0 - - - - - - -
27/12:34pm 13.6 NW 15 25 1008.4 - 0.0 - - - - - - -
27/12:30pm 13.6 NW 15 24 1008.5 - 0.0 - - - - - - -
27/12:11pm 13.4 NW 15 26 1008.9 - 0.0 - - - - - - -
27/12:00pm 13.4 NNW 15 23 1009.1 - 0.0 - - - - - - -
27/11:30am 13.1 NNW 13 21 1009.4 - 0.0 - - - - - - -
27/11:00am 13.2 NNW 15 21 1009.8 - 0.0 - - - - - - -
27/10:30am 13.5 NW 10 18 1010.2 - 0.0 - - - - - - -
27/10:00am 13.3 NNW 13 22 1010.4 - 0.0 - - - - - - -
27/09:30am 12.6 NNW 15 23 1010.7 - 0.0 - - - - - - -
27/09:00am 12.1 N 13 20 1010.6 - 0.0 - - - - - - -
27/08:30am 11.3 NNW 13 21 1010.8 - 0.0 - - - - - - -
27/08:00am 10.2 NNW 12 19 1011.1 - 0.0 - - - - - - -
27/07:30am 9.9 NNW 12 18 1011.1 - 0.0 - - - - - - -
27/07:00am 9.4 NW 16 21 1011.2 - 0.0 - - - - - - -
27/06:30am 9.3 NNW 17 22 1011.3 - 0.0 - - - - - - -
27/06:00am 9.6 NNW 19 24 1011.0 - 0.0 - - - - - - -
27/05:30am 9.6 NNW 15 22 1010.9 - 0.0 - - - - - - -
27/05:00am 9.9 NW 18 24 1010.5 - 0.0 - - - - - - -
27/04:36am 9.6 NW 18 28 1010.5 - 0.0 - - - - - - -
27/04:30am 9.8 NW 19 28 1010.3 - 0.0 - - - - - - -
27/04:27am 9.9 NW 18 28 1010.3 - 0.0 - - - - - - -
27/04:00am 10.0 NNW 18 25 1010.5 - 0.0 - - - - - - -
27/03:30am 9.6 NNW 14 21 1011.2 - 0.0 - - - - - - -
27/03:06am 10.0 NNW 16 26 1011.5 - 0.0 - - - - - - -
27/03:00am 9.8 NNW 17 25 1011.5 - 0.0 - - - - - - -
27/02:43am 9.8 NW 15 25 1011.6 - 0.0 - - - - - - -
27/02:30am 9.9 NNW 19 27 1011.4 - 0.0 - - - - - - -
27/02:00am 9.7 NNW 21 33 1011.1 - 0.0 - - - - - - -
27/01:30am 9.7 NW 21 31 1010.7 - 0.0 - - - - - - -
27/01:00am 10.0 NNW 23 33 1010.9 - 0.0 - - - - - - -
27/12:39am 10.1 NNW 23 33 1011.2 - 0.0 - - - - - - -
27/12:30am 10.1 NW 23 31 1011.1 - 0.0 - - - - - - -
27/12:00am 10.3 NW 21 31 1011.3 - 0.0 - - - - - - -
 
Date/Time
EST
Temp
°C
Wind Pressure Rain since
9am
mm
Weather Cloud Vis
km
Sea
Height
m
Swell
Dir  Spd
kts
Gust
kts
hPa Trend Height
m
Period
s
Dir
26/11:30pm 10.5 NNW 22 32 1011.6 - 0.0 - - - - - - -
26/11:00pm 10.7 NNW 22 32 1011.5 - 0.0 - - - - - - -
26/10:30pm 10.7 NNW 19 29 1011.9 - 0.0 - - - - - - -
26/10:00pm 11.1 NNW 22 34 1011.7 - 0.0 - - - - - - -
26/09:30pm 10.9 NNW 22 37 1011.9 - 0.0 - - - - - - -
26/09:00pm 11.1 NNW 21 33 1011.8 - 0.0 - - - - - - -
26/08:30pm 11.1 NNW 23 33 1011.7 - 0.0 - - - - - - -
26/08:14pm 11.0 NNW 21 31 1011.8 - 0.0 - - - - - - -
26/08:00pm 11.0 NNW 22 30 1011.6 - 0.0 - - - - - - -
26/07:30pm 11.3 NNW 24 33 1011.5 - 0.0 - - - - - - -
26/07:22pm 11.4 NNW 24 34 1011.5 - 0.0 - - - - - - -
26/07:00pm 11.5 NNW 23 31 1011.6 - 0.0 - - - - - - -
26/06:37pm 11.8 NNW 18 29 1012.1 - 0.0 - - - - - - -
26/06:30pm 11.9 NNW 17 24 1012.1 - 0.0 - - - - - - -
26/06:12pm 12.0 NNW 15 26 1012.1 - 0.0 - - - - - - -
26/06:00pm 12.1 NW 17 22 1012.1 - 0.0 - - - - - - -
26/05:30pm 12.5 NW 22 33 1011.5 - 0.0 - - - - - - -
26/05:04pm 12.7 NW 20 30 1011.0 - 0.0 - - - - - - -
26/05:00pm 12.8 NNW 19 26 1011.1 - 0.0 - - - - - - -
26/04:41pm 13.2 NNW 17 29 1011.3 - 0.0 - - - - - - -
26/04:30pm 13.4 NNW 17 25 1011.4 - 0.0 - - - - - - -
26/04:00pm 13.7 NNW 14 27 1011.1 - 0.0 - - - - - - -
26/03:30pm 13.8 N 14 21 1010.9 - 0.0 - - - - - - -
26/03:00pm 14.6 NNW 10 17 1011.1 - 0.0 - - - - - - -
26/02:30pm 14.7 NNW 13 25 1011.2 - 0.0 - - - - - - -
26/02:00pm 15.2 NW 11 23 1011.4 - 0.0 - - - - - - -
26/01:32pm 14.5 NW 15 25 1011.5 - 0.0 - - - - - - -
26/01:30pm 14.6 NW 15 23 1011.5 - 0.0 - - - - - - -
26/01:18pm 14.5 NW 15 25 1011.4 - 0.0 - - - - - - -
26/01:00pm 14.6 NW 17 26 1011.7 - 0.0 - - - - - - -
26/12:45pm 14.3 NNW 19 29 1011.6 - 0.0 - - - - - - -
26/12:30pm 13.8 NNW 18 27 1012.0 - 0.0 - - - - - - -
26/12:12pm 14.5 NW 18 28 1012.0 - 0.0 - - - - - - -
26/12:00pm 14.4 NW 17 24 1011.9 - 0.0 - - - - - - -
26/11:48am 14.4 WNW 14 25 1011.9 - 0.0 - - - - - - -
26/11:30am 15.4 WNW 9 16 1012.0 - 0.0 - - - - - - -
26/11:00am 12.6 NNW 17 24 1012.4 - 0.0 - - - - - - -
26/10:47am 12.6 NW 15 25 1012.1 - 0.0 - - - - - - -
26/10:30am 12.0 NW 17 26 1012.4 - 0.0 - - - - - - -
26/10:08am 11.1 NW 19 29 1012.4 - 0.0 - - - - - - -
26/10:00am 11.3 NW 17 26 1012.5 - 0.0 - - - - - - -
26/09:33am 11.1 NW 15 25 1012.7 - 0.0 - - - - - - -
26/09:30am 11.1 NW 17 25 1012.7 - 0.0 - - - - - - -
26/09:00am 10.1 NNW 16 27 1012.8 - 0.0 - - - - - - -
26/08:52am 10.0 NW 15 25 1012.9 - 0.0 - - - - - - -
26/08:30am 9.1 NW 17 22 1012.8 - 0.0 - - - - - - -
26/08:00am 8.4 NNW 16 22 1013.0 - 0.0 - - - - - - -
26/07:30am 7.8 NW 12 19 1013.5 - 0.0 - - - - - - -
26/07:00am 6.9 NW 8 15 1013.3 - 0.0 - - - - - - -
26/06:30am 6.1 SW 3 7 1013.1 - 0.0 - - - - - - -
26/06:00am 5.2 CALM 0 3 1013.0 - 0.0 - - - - - - -
26/05:30am 4.6 NE 2 4 1013.0 - 0.0 - - - - - - -
26/05:00am 4.6 N 4 6 1012.8 - 0.0 - - - - - - -
26/04:30am 5.5 NNE 5 7 1012.6 - 0.0 - - - - - - -
26/04:00am 7.2 NNE 7 13 1012.7 - 0.0 - - - - - - -
26/03:30am 6.0 NW 7 12 1012.6 - 0.0 - - - - - - -
26/03:00am 6.8 NNW 7 13 1012.7 - 0.0 - - - - - - -
26/02:30am 5.8 NNW 4 8 1012.8 - 0.0 - - - - - - -
26/02:00am 5.6 W 3 6 1013.1 - 0.0 - - - - - - -
26/01:30am 6.2 NNW 8 15 1013.5 - 0.0 - - - - - - -
26/01:00am 4.7 WSW 5 8 1013.6 - 0.0 - - - - - - -
26/12:30am 5.1 WSW 5 6 1013.8 - 0.0 - - - - - - -
26/12:00am 4.9 WNW 4 6 1013.8 - 0.0 - - - - - - -
 
Date/Time
EST
Temp
°C
Wind Pressure Rain since
9am
mm
Weather Cloud Vis
km
Sea
Height
m
Swell
Dir  Spd
kts
Gust
kts
hPa Trend Height
m
Period
s
Dir
25/11:30pm 4.8 W 6 7 1013.7 - 0.0 - - - - - - -
25/11:00pm 5.4 WSW 3 4 1013.8 - 0.0 - - - - - - -
25/10:30pm 5.9 NNE 3 7 1013.8 - 0.0 - - - - - - -
25/10:00pm 5.1 WSW 5 6 1013.6 - 0.0 - - - - - - -
25/09:30pm 5.9 WSW 1 5 1013.8 - 0.0 - - - - - - -
25/09:00pm 6.6 ESE 4 7 1013.9 - 0.0 - - - - - - -
25/08:30pm 6.3 N 2 5 1013.9 - 0.0 - - - - - - -
25/08:00pm 7.2 CALM 0 4 1013.8 - 0.0 - - - - - - -
25/07:30pm 7.2 N 3 4 1013.5 - 0.0 - - - - - - -
25/07:00pm 7.8 WSW 4 6 1013.5 - 0.0 - - - - - - -
25/06:30pm 7.8 SW 4 5 1013.2 - 0.0 - - - - - - -
25/06:00pm 8.5 CALM 0 0 1012.8 - 0.0 - - - - - - -
25/05:30pm 8.7 NW 4 6 1012.5 - 0.0 - - - - - - -
25/05:00pm 9.5 SW 7 13 1012.1 - 0.0 - - - - - - -
25/04:30pm 9.8 SW 4 8 1011.9 - 0.0 - - - - - - -
25/04:00pm 9.7 NNW 3 6 1011.9 - 0.0 - - - - - - -
25/03:30pm 9.1 SSW 9 12 1011.7 - 0.0 - - - - - - -
25/03:00pm 9.6 SE 9 11 1011.7 - 0.0 - - - - - - -
25/02:30pm 9.3 S 8 11 1011.6 - 0.0 - - - - - - -
25/02:00pm 9.8 S 14 19 1011.2 - 0.0 - - - - - - -
25/01:30pm 11.2 SSW 8 11 1011.0 - 0.0 - - - - - - -
25/01:00pm 10.1 S 10 15 1011.1 - 0.0 - - - - - - -
25/12:30pm 11.3 SW 10 15 1011.2 - 0.0 - - - - - - -
25/12:00pm 13.5 WSW 7 12 1011.3 - 0.0 - - - - - - -
25/11:30am 12.2 SSW 9 15 1011.6 - 0.0 - - - - - - -
25/11:00am 11.5 SW 8 16 1011.6 - 0.0 - - - - - - -
25/10:30am 10.7 SW 7 16 1011.3 - 0.0 - - - - - - -
25/10:00am 10.3 NW 5 7 1011.4 - 0.0 - - - - - - -
25/09:30am 7.6 NNW 7 9 1011.5 - 0.0 - - - - - - -
25/09:00am 6.6 NNW 9 11 1011.4 - 0.0 - - - - - - -
25/08:30am 5.7 NNW 9 12 1011.2 - 0.0 - - - - - - -
25/08:00am 5.9 NNW 7 9 1010.9 - 0.0 - - - - - - -
25/07:30am 4.3 NW 5 7 1010.9 - 0.0 - - - - - - -
25/07:00am 3.8 NW 6 13 1010.6 - 0.0 - - - - - - -
25/06:30am 4.0 NNW 6 8 1010.2 - 0.0 - - - - - - -
25/06:00am 4.3 NW 7 9 1009.9 - 0.0 - - - - - - -
25/05:30am 4.1 NNW 7 11 1009.8 - 0.0 - - - - - - -
25/05:00am 4.5 NW 7 11 1009.8 - 0.0 - - - - - - -
25/04:30am 4.5 NNW 6 9 1009.6 - 0.0 - - - - - - -
25/04:00am 4.0 NNW 5 7 1009.5 - 0.0 - - - - - - -
25/03:30am 4.4 NW 8 10 1009.4 - 0.0 - - - - - - -
25/03:00am 4.5 NNW 9 12 1009.5 - 0.0 - - - - - - -

Other Formats:

Comma delimited format used in spreadsheet applications
http://www.bom.gov.au/fwo/IDT60701/IDT60701.94970.axf

JavaScript Object Notation format (JSON) in row-major order
http://www.bom.gov.au/fwo/IDT60701/IDT60701.94970.json